This is the latest recevied weather packets stored in our database for station/object ZL1KPB-13. If no packets are shown the sender has not sent any weather packets the latest 10 day(s).
| Time | Temp. | Humidity | Pressure | Rain* | Wind** | Luminosity | Snow |
|---|---|---|---|---|---|---|---|
| 1777672269 | 17.22° C | 60% | 1038.1 hPa | 0 mm | - | - | - |
| 1777668022 | 13.33° C | 99% | 1038.2 hPa | 0 mm | - | - | - |
| 1777667473 | 11.67° C | 99% | 1038.2 hPa | 0 mm | - | - | - |
| 1777661470 | 6.11° C | 99% | 1037.1 hPa | 0 mm | - | - | - |
| 1777654829 | 6.11° C | 99% | 1037.1 hPa | 0 mm | - | - | - |
| 1777654224 | 6.67° C | 99% | 1037.1 hPa | 0 mm | - | - | - |
| 1777653017 | 6.67° C | 99% | 1037.2 hPa | 0 mm | - | - | - |
| 1777651872 | 6.67° C | 99% | 1037.2 hPa | 0 mm | - | - | - |
| 1777650061 | 6.67° C | 99% | 1037.3 hPa | 0 mm | - | - | - |
| 1777646439 | 6.67° C | 99% | 1037.7 hPa | 0 mm | - | - | - |
| 1777644629 | 7.22° C | 99% | 1037.9 hPa | 0 mm | - | - | - |
| 1777639259 | 7.22° C | 96% | 1038.1 hPa | 0 mm | - | - | - |
| 1777636866 | 7.78° C | 91% | 1038 hPa | 0 mm | - | - | - |
| 1777635035 | 7.78° C | 90% | 1038 hPa | 0 mm | - | - | - |
| 1777633849 | 7.78° C | 89% | 1038.1 hPa | 0 mm | - | - | - |
| 1777629664 | 8.89° C | 85% | 1038.2 hPa | 0 mm | - | - | - |
| 1777623669 | 9.44° C | 80% | 1038.2 hPa | 0 mm | - | - | - |
| 1777620671 | 9.44° C | 76% | 1038.3 hPa | 0 mm | - | - | - |
| 1777618902 | 10.56° C | 73% | 1038.1 hPa | 0 mm | - | - | - |
| 1777617050 | 11.11° C | 73% | 1037.9 hPa | 0 mm | - | - | - |
| 1777609866 | 15° C | 60% | 1037.8 hPa | 0 mm | - | - | - |
| 1777604477 | 18.89° C | 49% | 1038.1 hPa | 0 mm | - | - | - |
| 1777602624 | 18.89° C | 46% | 1038.3 hPa | 0 mm | - | - | - |
| 1777596650 | 17.22° C | 53% | 1039.1 hPa | 0 mm | - | - | - |
| 1777591822 | 16.11° C | 53% | 1040.1 hPa | 0 mm | - | - | - |
* Rain latest hour (hover to see other rain measurements)
** Current wind speed in m/s (hover to see current wind gust speed)